sensor_id;sensor_type;location;lat;lon;timestamp;pressure;altitude;pressure_sealevel;temperature;humidity
4022;BME280;2025;48.260;16.432;2022-07-30T00:01:14;99556.06;;;20.38;100.00
4022;BME280;2025;48.260;16.432;2022-07-30T00:03:41;99562.09;;;20.45;100.00
4022;BME280;2025;48.260;16.432;2022-07-30T00:06:10;99562.09;;;20.45;100.00
4022;BME280;2025;48.260;16.432;2022-07-30T00:08:37;99566.59;;;20.43;100.00
4022;BME280;2025;48.260;16.432;2022-07-30T00:11:04;99568.06;;;20.52;100.00
4022;BME280;2025;48.260;16.432;2022-07-30T00:13:31;99564.38;;;20.56;100.00
4022;BME280;2025;48.260;16.432;2022-07-30T00:15:58;99550.31;;;20.52;100.00
4022;BME280;2025;48.260;16.432;2022-07-30T00:18:25;99555.53;;;20.55;100.00
4022;BME280;2025;48.260;16.432;2022-07-30T00:20:52;99568.63;;;20.61;100.00
4022;BME280;2025;48.260;16.432;2022-07-30T00:23:20;99579.09;;;20.66;100.00
4022;BME280;2025;48.260;16.432;2022-07-30T00:25:47;99575.13;;;20.53;100.00
4022;BME280;2025;48.260;16.432;2022-07-30T00:28:14;99573.06;;;20.61;100.00
4022;BME280;2025;48.260;16.432;2022-07-30T00:30:41;99572.03;;;20.65;100.00
4022;BME280;2025;48.260;16.432;2022-07-30T00:33:08;99577.38;;;20.65;100.00
4022;BME280;2025;48.260;16.432;2022-07-30T00:35:35;99579.91;;;20.68;100.00
4022;BME280;2025;48.260;16.432;2022-07-30T00:38:03;99586.06;;;20.70;100.00
4022;BME280;2025;48.260;16.432;2022-07-30T00:40:31;99579.22;;;20.63;100.00
4022;BME280;2025;48.260;16.432;2022-07-30T00:42:58;99572.91;;;20.65;100.00
4022;BME280;2025;48.260;16.432;2022-07-30T00:45:25;99580.94;;;20.64;100.00
4022;BME280;2025;48.260;16.432;2022-07-30T00:47:53;99576.59;;;20.61;100.00
4022;BME280;2025;48.260;16.432;2022-07-30T00:50:20;99563.06;;;20.67;100.00
4022;BME280;2025;48.260;16.432;2022-07-30T00:52:47;99564.88;;;20.67;100.00
4022;BME280;2025;48.260;16.432;2022-07-30T00:55:14;99560.31;;;20.70;100.00
4022;BME280;2025;48.260;16.432;2022-07-30T00:57:43;99561.34;;;20.66;100.00
4022;BME280;2025;48.260;16.432;2022-07-30T01:00:12;99557.75;;;20.67;100.00
4022;BME280;2025;48.260;16.432;2022-07-30T01:02:40;99553.47;;;20.63;100.00
4022;BME280;2025;48.260;16.432;2022-07-30T01:05:09;99548.47;;;20.54;100.00
4022;BME280;2025;48.260;16.432;2022-07-30T01:07:36;99546.84;;;20.50;100.00
4022;BME280;2025;48.260;16.432;2022-07-30T01:10:04;99525.66;;;20.47;100.00
4022;BME280;2025;48.260;16.432;2022-07-30T01:12:31;99521.47;;;20.40;100.00
4022;BME280;2025;48.260;16.432;2022-07-30T01:15:01;99508.81;;;20.20;100.00
4022;BME280;2025;48.260;16.432;2022-07-30T01:17:29;99527.41;;;20.22;100.00
4022;BME280;2025;48.260;16.432;2022-07-30T01:19:59;99525.19;;;20.34;100.00
4022;BME280;2025;48.260;16.432;2022-07-30T01:22:38;99537.22;;;20.46;100.00
4022;BME280;2025;48.260;16.432;2022-07-30T01:25:13;99536.94;;;20.54;100.00
4022;BME280;2025;48.260;16.432;2022-07-30T01:27:47;99542.97;;;20.59;100.00
4022;BME280;2025;48.260;16.432;2022-07-30T01:30:18;99538.63;;;20.56;100.00
4022;BME280;2025;48.260;16.432;2022-07-30T01:32:46;99543.91;;;20.58;100.00
4022;BME280;2025;48.260;16.432;2022-07-30T01:35:15;99540.91;;;20.67;100.00
4022;BME280;2025;48.260;16.432;2022-07-30T01:37:45;99540.22;;;20.62;100.00
4022;BME280;2025;48.260;16.432;2022-07-30T01:40:13;99544.78;;;20.58;100.00
4022;BME280;2025;48.260;16.432;2022-07-30T01:42:42;99534.13;;;20.58;100.00
4022;BME280;2025;48.260;16.432;2022-07-30T01:45:11;99542.97;;;20.59;100.00
4022;BME280;2025;48.260;16.432;2022-07-30T01:47:40;99554.66;;;20.55;100.00
4022;BME280;2025;48.260;16.432;2022-07-30T01:50:11;99548.28;;;20.59;100.00
4022;BME280;2025;48.260;16.432;2022-07-30T01:52:40;99550.84;;;20.62;100.00
4022;BME280;2025;48.260;16.432;2022-07-30T01:55:11;99563.19;;;20.64;100.00
4022;BME280;2025;48.260;16.432;2022-07-30T01:57:40;99555.47;;;20.57;100.00
4022;BME280;2025;48.260;16.432;2022-07-30T02:00:10;99564.22;;;20.60;100.00
4022;BME280;2025;48.260;16.432;2022-07-30T02:02:37;99559.88;;;20.58;100.00
4022;BME280;2025;48.260;16.432;2022-07-30T02:05:06;99567.97;;;20.55;100.00
4022;BME280;2025;48.260;16.432;2022-07-30T02:07:36;99552.00;;;20.55;100.00
4022;BME280;2025;48.260;16.432;2022-07-30T02:10:07;99559.09;;;20.54;100.00
4022;BME280;2025;48.260;16.432;2022-07-30T02:12:37;99552.25;;;20.47;100.00
4022;BME280;2025;48.260;16.432;2022-07-30T02:15:10;99556.56;;;20.51;100.00
4022;BME280;2025;48.260;16.432;2022-07-30T02:17:42;99558.41;;;20.49;100.00
4022;BME280;2025;48.260;16.432;2022-07-30T02:20:11;99554.75;;;20.52;100.00
4022;BME280;2025;48.260;16.432;2022-07-30T02:22:43;99559.22;;;20.51;100.00
4022;BME280;2025;48.260;16.432;2022-07-30T02:25:15;99560.19;;;20.48;100.00
4022;BME280;2025;48.260;16.432;2022-07-30T02:27:44;99554.06;;;20.46;100.00
4022;BME280;2025;48.260;16.432;2022-07-30T02:30:14;99555.78;;;20.47;100.00
4022;BME280;2025;48.260;16.432;2022-07-30T02:32:41;99555.78;;;20.47;100.00
4022;BME280;2025;48.260;16.432;2022-07-30T02:35:14;99555.78;;;20.47;100.00
4022;BME280;2025;48.260;16.432;2022-07-30T02:37:41;99548.03;;;20.41;100.00
4022;BME280;2025;48.260;16.432;2022-07-30T02:40:14;99536.56;;;20.39;100.00
4022;BME280;2025;48.260;16.432;2022-07-30T02:42:42;99542.88;;;20.35;100.00
4022;BME280;2025;48.260;16.432;2022-07-30T02:45:15;99551.94;;;20.30;100.00
4022;BME280;2025;48.260;16.432;2022-07-30T02:47:42;99549.34;;;20.28;100.00
4022;BME280;2025;48.260;16.432;2022-07-30T02:50:11;99536.25;;;20.22;100.00
4022;BME280;2025;48.260;16.432;2022-07-30T02:52:40;99549.03;;;20.11;100.00
4022;BME280;2025;48.260;16.432;2022-07-30T02:55:09;99548.16;;;20.10;100.00
4022;BME280;2025;48.260;16.432;2022-07-30T02:57:38;99544.75;;;20.07;100.00
4022;BME280;2025;48.260;16.432;2022-07-30T03:00:08;99545.72;;;20.04;100.00
4022;BME280;2025;48.260;16.432;2022-07-30T03:02:38;99548.22;;;20.09;100.00
4022;BME280;2025;48.260;16.432;2022-07-30T03:05:07;99554.34;;;20.11;100.00
4022;BME280;2025;48.260;16.432;2022-07-30T03:07:35;99552.81;;;20.04;100.00
4022;BME280;2025;48.260;16.432;2022-07-30T03:10:04;99547.84;;;19.93;100.00
4022;BME280;2025;48.260;16.432;2022-07-30T03:12:32;99549.03;;;19.84;100.00
4022;BME280;2025;48.260;16.432;2022-07-30T03:15:00;99549.75;;;19.90;100.00
4022;BME280;2025;48.260;16.432;2022-07-30T03:17:32;99548.88;;;19.89;100.00
4022;BME280;2025;48.260;16.432;2022-07-30T03:20:03;99555.78;;;19.95;100.00
4022;BME280;2025;48.260;16.432;2022-07-30T03:22:34;99558.34;;;19.98;100.00
4022;BME280;2025;48.260;16.432;2022-07-30T03:25:04;99572.41;;;20.01;100.00
4022;BME280;2025;48.260;16.432;2022-07-30T03:27:33;99568.69;;;20.07;100.00
4022;BME280;2025;48.260;16.432;2022-07-30T03:30:02;99566.84;;;20.09;100.00
4022;BME280;2025;48.260;16.432;2022-07-30T03:32:30;99578.41;;;20.08;100.00
4022;BME280;2025;48.260;16.432;2022-07-30T03:34:58;99574.81;;;20.09;100.00
4022;BME280;2025;48.260;16.432;2022-07-30T03:37:27;99588.94;;;20.11;100.00
4022;BME280;2025;48.260;16.432;2022-07-30T03:39:56;99583.41;;;20.17;100.00
4022;BME280;2025;48.260;16.432;2022-07-30T03:42:24;99581.66;;;20.16;100.00
4022;BME280;2025;48.260;16.432;2022-07-30T03:44:52;99587.88;;;20.16;100.00
4022;BME280;2025;48.260;16.432;2022-07-30T03:47:19;99587.81;;;20.18;100.00
4022;BME280;2025;48.260;16.432;2022-07-30T03:49:48;99586.94;;;20.17;100.00
4022;BME280;2025;48.260;16.432;2022-07-30T03:52:16;99587.03;;;20.14;100.00
4022;BME280;2025;48.260;16.432;2022-07-30T03:54:47;99591.19;;;20.23;100.00
4022;BME280;2025;48.260;16.432;2022-07-30T03:57:14;99594.09;;;20.15;100.00
4022;BME280;2025;48.260;16.432;2022-07-30T03:59:41;99606.44;;;20.18;100.00
4022;BME280;2025;48.260;16.432;2022-07-30T04:02:10;99602.69;;;20.24;100.00
4022;BME280;2025;48.260;16.432;2022-07-30T04:04:40;99606.72;;;20.09;100.00
4022;BME280;2025;48.260;16.432;2022-07-30T04:07:07;99600.16;;;19.93;100.00
4022;BME280;2025;48.260;16.432;2022-07-30T04:09:34;99590.03;;;19.77;100.00
4022;BME280;2025;48.260;16.432;2022-07-30T04:12:03;99579.88;;;19.62;100.00
4022;BME280;2025;48.260;16.432;2022-07-30T04:14:38;99566.88;;;19.51;100.00
4022;BME280;2025;48.260;16.432;2022-07-30T04:17:10;99565.47;;;19.40;100.00
4022;BME280;2025;48.260;16.432;2022-07-30T04:19:42;99561.16;;;19.36;100.00
4022;BME280;2025;48.260;16.432;2022-07-30T04:22:11;99559.75;;;19.24;100.00
4022;BME280;2025;48.260;16.432;2022-07-30T04:24:41;99544.63;;;19.26;100.00
4022;BME280;2025;48.260;16.432;2022-07-30T04:27:11;99551.69;;;19.27;100.00
4022;BME280;2025;48.260;16.432;2022-07-30T04:29:39;99554.28;;;19.29;100.00
4022;BME280;2025;48.260;16.432;2022-07-30T04:32:07;99533.91;;;19.29;100.00
4022;BME280;2025;48.260;16.432;2022-07-30T04:34:35;99537.53;;;19.27;100.00
4022;BME280;2025;48.260;16.432;2022-07-30T04:37:02;99540.09;;;19.30;100.00
4022;BME280;2025;48.260;16.432;2022-07-30T04:39:29;99527.81;;;19.26;100.00
4022;BME280;2025;48.260;16.432;2022-07-30T04:41:56;99528.69;;;19.26;100.00
4022;BME280;2025;48.260;16.432;2022-07-30T04:44:24;99547.34;;;19.25;100.00
4022;BME280;2025;48.260;16.432;2022-07-30T04:46:51;99538.34;;;19.29;100.00
4022;BME280;2025;48.260;16.432;2022-07-30T04:49:19;99542.88;;;19.25;100.00
4022;BME280;2025;48.260;16.432;2022-07-30T04:51:48;99551.69;;;19.27;100.00
4022;BME280;2025;48.260;16.432;2022-07-30T04:54:15;99546.31;;;19.29;100.00
4022;BME280;2025;48.260;16.432;2022-07-30T04:56:45;99548.88;;;19.32;100.00
4022;BME280;2025;48.260;16.432;2022-07-30T04:59:13;99558.59;;;19.33;100.00
4022;BME280;2025;48.260;16.432;2022-07-30T05:01:45;99546.88;;;19.40;100.00
4022;BME280;2025;48.260;16.432;2022-07-30T05:04:14;99538.94;;;19.38;100.00
4022;BME280;2025;48.260;16.432;2022-07-30T05:06:42;99549.47;;;19.41;100.00
4022;BME280;2025;48.260;16.432;2022-07-30T05:09:10;99544.22;;;19.40;100.00
4022;BME280;2025;48.260;16.432;2022-07-30T05:11:37;99545.03;;;19.42;100.00
4022;BME280;2025;48.260;16.432;2022-07-30T05:14:04;99571.69;;;19.39;100.00
4022;BME280;2025;48.260;16.432;2022-07-30T05:16:31;99571.69;;;19.39;100.00
4022;BME280;2025;48.260;16.432;2022-07-30T05:19:01;99576.88;;;19.43;100.00
4022;BME280;2025;48.260;16.432;2022-07-30T05:21:28;99582.97;;;19.47;100.00
4022;BME280;2025;48.260;16.432;2022-07-30T05:23:55;99585.63;;;19.47;100.00
4022;BME280;2025;48.260;16.432;2022-07-30T05:26:22;99568.81;;;19.46;100.00
4022;BME280;2025;48.260;16.432;2022-07-30T05:28:49;99584.59;;;19.51;100.00
4022;BME280;2025;48.260;16.432;2022-07-30T05:31:16;99579.47;;;19.45;100.00
4022;BME280;2025;48.260;16.432;2022-07-30T05:33:43;99573.88;;;19.56;100.00
4022;BME280;2025;48.260;16.432;2022-07-30T05:36:12;99588.13;;;19.53;100.00
4022;BME280;2025;48.260;16.432;2022-07-30T05:38:39;99595.22;;;19.52;100.00
4022;BME280;2025;48.260;16.432;2022-07-30T05:41:06;99604.94;;;19.53;100.00
4022;BME280;2025;48.260;16.432;2022-07-30T05:43:33;99598.84;;;19.48;100.00
4022;BME280;2025;48.260;16.432;2022-07-30T05:46:00;99590.84;;;19.50;100.00
4022;BME280;2025;48.260;16.432;2022-07-30T05:48:27;99605.00;;;19.50;100.00
4022;BME280;2025;48.260;16.432;2022-07-30T05:50:56;99602.53;;;19.44;100.00
4022;BME280;2025;48.260;16.432;2022-07-30T05:53:24;99603.47;;;19.42;100.00
4022;BME280;2025;48.260;16.432;2022-07-30T05:55:51;99605.28;;;19.41;100.00
4022;BME280;2025;48.260;16.432;2022-07-30T05:58:18;99606.00;;;19.46;100.00
4022;BME280;2025;48.260;16.432;2022-07-30T06:00:45;99609.63;;;19.44;100.00
4022;BME280;2025;48.260;16.432;2022-07-30T06:03:12;99618.69;;;19.37;100.00
4022;BME280;2025;48.260;16.432;2022-07-30T06:05:39;99621.34;;;19.37;100.00
4022;BME280;2025;48.260;16.432;2022-07-30T06:08:07;99607.19;;;19.36;100.00
4022;BME280;2025;48.260;16.432;2022-07-30T06:10:35;99604.84;;;19.26;100.00
4022;BME280;2025;48.260;16.432;2022-07-30T06:13:02;99612.13;;;19.19;100.00
4022;BME280;2025;48.260;16.432;2022-07-30T06:15:29;99588.34;;;19.14;100.00
4022;BME280;2025;48.260;16.432;2022-07-30T06:17:56;99589.34;;;19.10;100.00
4022;BME280;2025;48.260;16.432;2022-07-30T06:20:23;99572.66;;;19.05;100.00
4022;BME280;2025;48.260;16.432;2022-07-30T06:22:50;99569.34;;;18.97;100.00
4022;BME280;2025;48.260;16.432;2022-07-30T06:25:17;99563.22;;;18.95;100.00
4022;BME280;2025;48.260;16.432;2022-07-30T06:27:46;99551.78;;;18.93;100.00
4022;BME280;2025;48.260;16.432;2022-07-30T06:30:13;99545.63;;;18.91;100.00
4022;BME280;2025;48.260;16.432;2022-07-30T06:32:40;99541.19;;;18.91;100.00
4022;BME280;2025;48.260;16.432;2022-07-30T06:35:10;99534.09;;;18.92;100.00
4022;BME280;2025;48.260;16.432;2022-07-30T06:37:37;99525.34;;;18.88;100.00
4022;BME280;2025;48.260;16.432;2022-07-30T06:40:05;99522.69;;;18.88;100.00
4022;BME280;2025;48.260;16.432;2022-07-30T06:42:32;99521.81;;;18.88;100.00
4022;BME280;2025;48.260;16.432;2022-07-30T06:45:00;99516.38;;;18.92;100.00
4022;BME280;2025;48.260;16.432;2022-07-30T06:47:27;99519.22;;;18.86;100.00
4022;BME280;2025;48.260;16.432;2022-07-30T06:49:56;99513.91;;;18.86;100.00
4022;BME280;2025;48.260;16.432;2022-07-30T06:52:24;99521.03;;;18.84;100.00
4022;BME280;2025;48.260;16.432;2022-07-30T06:54:51;99523.56;;;18.89;100.00
4022;BME280;2025;48.260;16.432;2022-07-30T06:57:18;99525.22;;;18.93;100.00
4022;BME280;2025;48.260;16.432;2022-07-30T06:59:45;99522.59;;;18.91;100.00
4022;BME280;2025;48.260;16.432;2022-07-30T07:02:13;99535.00;;;18.91;100.00
4022;BME280;2025;48.260;16.432;2022-07-30T07:04:40;99532.34;;;18.91;100.00
4022;BME280;2025;48.260;16.432;2022-07-30T07:07:07;99527.00;;;18.92;100.00
4022;BME280;2025;48.260;16.432;2022-07-30T07:09:34;99532.34;;;18.91;100.00
4022;BME280;2025;48.260;16.432;2022-07-30T07:12:01;99523.56;;;18.89;100.00
4022;BME280;2025;48.260;16.432;2022-07-30T07:14:28;99527.91;;;18.91;100.00
4022;BME280;2025;48.260;16.432;2022-07-30T07:16:55;99530.63;;;18.90;100.00
4022;BME280;2025;48.260;16.432;2022-07-30T07:19:23;99529.66;;;18.92;100.00
4022;BME280;2025;48.260;16.432;2022-07-30T07:21:51;99544.66;;;18.94;100.00
4022;BME280;2025;48.260;16.432;2022-07-30T07:24:17;99531.31;;;18.97;100.00
4022;BME280;2025;48.260;16.432;2022-07-30T07:26:44;99535.72;;;18.98;100.00
4022;BME280;2025;48.260;16.432;2022-07-30T07:29:11;99540.06;;;19.00;100.00
4022;BME280;2025;48.260;16.432;2022-07-30T07:31:38;99544.38;;;19.04;100.00
4022;BME280;2025;48.260;16.432;2022-07-30T07:34:05;99544.31;;;19.07;100.00
4022;BME280;2025;48.260;16.432;2022-07-30T07:36:34;99549.63;;;19.06;100.00
4022;BME280;2025;48.260;16.432;2022-07-30T07:39:01;99555.81;;;19.08;100.00
4022;BME280;2025;48.260;16.432;2022-07-30T07:41:34;99549.53;;;19.10;100.00
4022;BME280;2025;48.260;16.432;2022-07-30T07:44:01;99553.88;;;19.13;100.00
4022;BME280;2025;48.260;16.432;2022-07-30T07:46:28;99551.97;;;19.18;100.00
4022;BME280;2025;48.260;16.432;2022-07-30T07:48:55;99555.38;;;19.21;100.00
4022;BME280;2025;48.260;16.432;2022-07-30T07:51:22;99560.53;;;19.28;100.00
4022;BME280;2025;48.260;16.432;2022-07-30T07:53:51;99556.03;;;19.30;100.00
4022;BME280;2025;48.260;16.432;2022-07-30T07:56:17;99564.72;;;19.35;100.00
4022;BME280;2025;48.260;16.432;2022-07-30T07:58:46;99564.72;;;19.35;100.00
4022;BME280;2025;48.260;16.432;2022-07-30T08:01:13;99566.38;;;19.39;100.00
4022;BME280;2025;48.260;16.432;2022-07-30T08:03:40;99568.22;;;19.37;100.00
4022;BME280;2025;48.260;16.432;2022-07-30T08:06:07;99550.63;;;19.33;100.00
4022;BME280;2025;48.260;16.432;2022-07-30T08:08:34;99562.84;;;19.38;100.00
4022;BME280;2025;48.260;16.432;2022-07-30T08:11:04;99563.53;;;19.45;100.00
4022;BME280;2025;48.260;16.432;2022-07-30T08:13:31;99565.19;;;19.49;100.00
4022;BME280;2025;48.260;16.432;2022-07-30T08:15:58;99560.59;;;19.56;100.00
4022;BME280;2025;48.260;16.432;2022-07-30T08:18:25;99552.56;;;19.57;100.00
4022;BME280;2025;48.260;16.432;2022-07-30T08:20:52;99555.94;;;19.62;100.00
4022;BME280;2025;48.260;16.432;2022-07-30T08:23:19;99556.66;;;19.67;100.00
4022;BME280;2025;48.260;16.432;2022-07-30T08:25:47;99574.34;;;19.68;100.00
4022;BME280;2025;48.260;16.432;2022-07-30T08:28:16;99576.81;;;19.74;100.00
4022;BME280;2025;48.260;16.432;2022-07-30T08:30:43;99580.09;;;19.82;100.00
4022;BME280;2025;48.260;16.432;2022-07-30T08:33:10;99568.56;;;19.83;100.00
4022;BME280;2025;48.260;16.432;2022-07-30T08:35:36;99577.06;;;19.95;100.00
4022;BME280;2025;48.260;16.432;2022-07-30T08:38:03;99575.00;;;20.03;100.00
4022;BME280;2025;48.260;16.432;2022-07-30T08:40:32;99585.56;;;20.06;100.00
4022;BME280;2025;48.260;16.432;2022-07-30T08:42:59;99584.44;;;20.13;100.00
4022;BME280;2025;48.260;16.432;2022-07-30T08:45:29;99589.03;;;20.08;100.00
4022;BME280;2025;48.260;16.432;2022-07-30T08:47:57;99603.34;;;20.04;100.00
4022;BME280;2025;48.260;16.432;2022-07-30T08:50:26;99594.25;;;20.11;100.00
4022;BME280;2025;48.260;16.432;2022-07-30T08:52:53;99600.38;;;20.13;100.00
4022;BME280;2025;48.260;16.432;2022-07-30T08:55:21;99600.59;;;20.07;100.00
4022;BME280;2025;48.260;16.432;2022-07-30T08:57:49;99603.19;;;20.08;100.00
4022;BME280;2025;48.260;16.432;2022-07-30T09:00:16;99600.59;;;20.07;100.00
4022;BME280;2025;48.260;16.432;2022-07-30T09:02:45;99608.03;;;19.96;100.00
4022;BME280;2025;48.260;16.432;2022-07-30T09:05:13;99605.38;;;19.96;100.00
4022;BME280;2025;48.260;16.432;2022-07-30T09:07:40;99608.03;;;19.96;100.00
4022;BME280;2025;48.260;16.432;2022-07-30T09:10:09;99608.09;;;19.94;100.00
4022;BME280;2025;48.260;16.432;2022-07-30T09:12:38;99617.75;;;19.97;100.00
4022;BME280;2025;48.260;16.432;2022-07-30T09:15:08;99618.81;;;19.91;100.00
4022;BME280;2025;48.260;16.432;2022-07-30T09:17:54;99616.13;;;19.93;100.00
4022;BME280;2025;48.260;16.432;2022-07-30T09:20:23;99607.22;;;19.94;100.00
4022;BME280;2025;48.260;16.432;2022-07-30T09:22:52;99617.63;;;20.01;100.00
4022;BME280;2025;48.260;16.432;2022-07-30T09:25:34;99615.09;;;19.97;100.00
4022;BME280;2025;48.260;16.432;2022-07-30T09:28:01;99620.38;;;19.98;100.00
4022;BME280;2025;48.260;16.432;2022-07-30T09:30:42;99612.06;;;20.09;100.00
4022;BME280;2025;48.260;16.432;2022-07-30T09:33:10;99619.78;;;20.16;100.00
4022;BME280;2025;48.260;16.432;2022-07-30T09:35:38;99609.00;;;20.21;100.00
4022;BME280;2025;48.260;16.432;2022-07-30T09:38:06;99605.25;;;20.27;100.00
4022;BME280;2025;48.260;16.432;2022-07-30T09:40:33;99603.50;;;20.26;100.00
4022;BME280;2025;48.260;16.432;2022-07-30T09:43:01;99605.81;;;20.36;100.00
4022;BME280;2025;48.260;16.432;2022-07-30T09:45:30;99616.56;;;20.33;100.00
4022;BME280;2025;48.260;16.432;2022-07-30T09:47:58;99611.13;;;20.36;100.00
4022;BME280;2025;48.260;16.432;2022-07-30T09:50:26;99607.38;;;20.43;100.00
4022;BME280;2025;48.260;16.432;2022-07-30T09:52:54;99628.66;;;20.43;100.00
4022;BME280;2025;48.260;16.432;2022-07-30T09:55:31;99633.03;;;20.46;100.00
4022;BME280;2025;48.260;16.432;2022-07-30T09:58:00;99621.97;;;20.58;100.00
4022;BME280;2025;48.260;16.432;2022-07-30T10:00:28;99615.75;;;20.58;100.00
4022;BME280;2025;48.260;16.432;2022-07-30T10:02:56;99620.66;;;20.70;100.00
4022;BME280;2025;48.260;16.432;2022-07-30T10:05:26;99629.78;;;20.89;100.00
4022;BME280;2025;48.260;16.432;2022-07-30T10:07:55;99620.31;;;21.05;100.00
4022;BME280;2025;48.260;16.432;2022-07-30T10:10:24;99615.34;;;21.20;100.00
4022;BME280;2025;48.260;16.432;2022-07-30T10:12:53;99612.69;;;21.20;100.00
4022;BME280;2025;48.260;16.432;2022-07-30T10:15:24;99630.16;;;21.28;100.00
4022;BME280;2025;48.260;16.432;2022-07-30T10:17:53;99623.84;;;21.31;100.00
4022;BME280;2025;48.260;16.432;2022-07-30T10:20:20;99618.94;;;21.19;100.00
4022;BME280;2025;48.260;16.432;2022-07-30T10:22:50;99614.69;;;21.38;100.00
4022;BME280;2025;48.260;16.432;2022-07-30T10:25:18;99612.97;;;21.37;100.00
4022;BME280;2025;48.260;16.432;2022-07-30T10:27:46;99620.13;;;21.35;100.00
4022;BME280;2025;48.260;16.432;2022-07-30T10:30:13;99617.13;;;21.44;100.00
4022;BME280;2025;48.260;16.432;2022-07-30T10:32:40;99612.31;;;21.54;100.00
4022;BME280;2025;48.260;16.432;2022-07-30T10:35:09;99624.06;;;21.71;100.00
4022;BME280;2025;48.260;16.432;2022-07-30T10:37:40;99619.13;;;21.84;100.00
4022;BME280;2025;48.260;16.432;2022-07-30T10:43:16;99625.16;;;22.55;100.00
4022;BME280;2025;48.260;16.432;2022-07-30T10:45:55;99616.78;;;23.04;100.00
4022;BME280;2025;48.260;16.432;2022-07-30T10:48:26;99615.09;;;23.22;100.00
4022;BME280;2025;48.260;16.432;2022-07-30T10:50:55;99614.09;;;23.64;100.00
4022;BME280;2025;48.260;16.432;2022-07-30T10:53:33;99611.69;;;23.77;100.00
4022;BME280;2025;48.260;16.432;2022-07-30T10:56:13;99617.78;;;23.41;100.00
4022;BME280;2025;48.260;16.432;2022-07-30T10:59:03;99619.16;;;23.31;100.00
4022;BME280;2025;48.260;16.432;2022-07-30T11:02:10;99619.44;;;23.25;100.00
4022;BME280;2025;48.260;16.432;2022-07-30T11:04:37;99618.78;;;23.20;100.00
4022;BME280;2025;48.260;16.432;2022-07-30T11:07:26;99621.75;;;23.32;100.00
4022;BME280;2025;48.260;16.432;2022-07-30T11:09:55;99620.09;;;23.30;100.00
4022;BME280;2025;48.260;16.432;2022-07-30T11:12:57;99624.78;;;23.25;100.00
4022;BME280;2025;48.260;16.432;2022-07-30T11:15:52;99620.84;;;23.52;100.00
4022;BME280;2025;48.260;16.432;2022-07-30T11:18:19;99622.19;;;24.17;100.00
4022;BME280;2025;48.260;16.432;2022-07-30T11:21:12;99610.56;;;24.54;100.00
4022;BME280;2025;48.260;16.432;2022-07-30T11:23:40;99605.16;;;24.56;100.00
4022;BME280;2025;48.260;16.432;2022-07-30T11:26:07;99612.88;;;24.62;100.00
4022;BME280;2025;48.260;16.432;2022-07-30T11:28:37;99602.78;;;24.84;100.00
4022;BME280;2025;48.260;16.432;2022-07-30T11:31:30;99601.06;;;25.49;100.00
4022;BME280;2025;48.260;16.432;2022-07-30T11:34:25;99595.34;;;25.07;100.00
4022;BME280;2025;48.260;16.432;2022-07-30T11:40:08;99592.59;;;25.41;100.00
4022;BME280;2025;48.260;16.432;2022-07-30T11:42:37;99593.75;;;25.20;100.00
4022;BME280;2025;48.260;16.432;2022-07-30T11:45:24;99594.25;;;24.76;100.00
4022;BME280;2025;48.260;16.432;2022-07-30T11:47:59;99594.75;;;25.02;100.00
4022;BME280;2025;48.260;16.432;2022-07-30T11:50:29;99595.75;;;25.81;100.00
4022;BME280;2025;48.260;16.432;2022-07-30T11:52:57;99591.16;;;25.18;100.00
4022;BME280;2025;48.260;16.432;2022-07-30T11:55:27;99590.44;;;25.15;100.00
4022;BME280;2025;48.260;16.432;2022-07-30T11:57:58;99593.88;;;24.67;100.00
4022;BME280;2025;48.260;16.432;2022-07-30T12:00:32;99589.69;;;24.61;100.00
4022;BME280;2025;48.260;16.432;2022-07-30T12:03:06;99595.06;;;24.44;100.00
4022;BME280;2025;48.260;16.432;2022-07-30T12:05:34;99594.16;;;24.07;100.00
4022;BME280;2025;48.260;16.432;2022-07-30T12:08:01;99593.13;;;23.74;100.00
4022;BME280;2025;48.260;16.432;2022-07-30T12:10:28;99588.97;;;23.85;100.00
4022;BME280;2025;48.260;16.432;2022-07-30T12:13:05;99589.91;;;24.03;100.00
4022;BME280;2025;48.260;16.432;2022-07-30T12:15:34;99587.03;;;23.70;100.00
4022;BME280;2025;48.260;16.432;2022-07-30T12:18:03;99592.97;;;23.77;100.00
4022;BME280;2025;48.260;16.432;2022-07-30T12:20:30;99585.09;;;23.55;100.00
4022;BME280;2025;48.260;16.432;2022-07-30T12:22:57;99579.75;;;23.74;100.00
4022;BME280;2025;48.260;16.432;2022-07-30T12:25:25;99577.56;;;23.82;100.00
4022;BME280;2025;48.260;16.432;2022-07-30T12:27:52;99576.91;;;23.77;100.00
4022;BME280;2025;48.260;16.432;2022-07-30T12:30:19;99571.22;;;23.65;100.00
4022;BME280;2025;48.260;16.432;2022-07-30T12:32:48;99570.84;;;23.73;100.00
4022;BME280;2025;48.260;16.432;2022-07-30T12:35:17;99561.94;;;23.91;100.00
4022;BME280;2025;48.260;16.432;2022-07-30T12:38:02;99564.03;;;23.85;100.00
4022;BME280;2025;48.260;16.432;2022-07-30T12:40:29;99556.47;;;23.76;100.00
4022;BME280;2025;48.260;16.432;2022-07-30T12:42:57;99564.56;;;23.55;100.00
4022;BME280;2025;48.260;16.432;2022-07-30T12:45:28;99557.13;;;23.62;100.00
4022;BME280;2025;48.260;16.432;2022-07-30T12:47:56;99543.75;;;23.62;100.00
4022;BME280;2025;48.260;16.432;2022-07-30T12:50:25;99548.94;;;23.65;100.00
4022;BME280;2025;48.260;16.432;2022-07-30T12:52:54;99541.56;;;23.70;100.00
4022;BME280;2025;48.260;16.432;2022-07-30T12:55:29;99555.41;;;23.97;100.00
4022;BME280;2025;48.260;16.432;2022-07-30T12:57:59;99549.66;;;24.05;100.00
4022;BME280;2025;48.260;16.432;2022-07-30T13:00:28;99542.44;;;24.24;100.00
4022;BME280;2025;48.260;16.432;2022-07-30T13:02:55;99531.81;;;24.41;100.00
4022;BME280;2025;48.260;16.432;2022-07-30T13:05:44;99524.31;;;24.48;100.00
4022;BME280;2025;48.260;16.432;2022-07-30T13:08:12;99522.28;;;24.53;100.00
4022;BME280;2025;48.260;16.432;2022-07-30T13:10:53;99522.19;;;24.54;100.00
4022;BME280;2025;48.260;16.432;2022-07-30T13:13:21;99514.06;;;24.56;100.00
4022;BME280;2025;48.260;16.432;2022-07-30T13:15:57;99521.00;;;24.60;100.00
4022;BME280;2025;48.260;16.432;2022-07-30T13:18:25;99519.13;;;24.45;100.00